AirNav   MODERNIZE NOT PRIVATIZE ATC
 
 442 users online  

01NY Vassar Hospital Heliport
Poughkeepsie, New York, USA

GOING TO POUGHKEEPSIE?


FAA INFORMATION EFFECTIVE 20 JULY 2017

Location

FAA Identifier: 01NY
Lat/Long: 41-41-32.6700N / 073-56-12.5400W
41-41.544500N / 073-56.209000W
41.6924083 / -73.9368167
(estimated)
Elevation: 100 ft. / 30 m (estimated)
Variation: 13W (1985)
From city: 3 miles SW of POUGHKEEPSIE, NY
Time zone: UTC -4 (UTC -5 during Standard Time)
Zip code: 12601

Heliport Operations

Heliport use: Private use, MEDICAL USE.
Activation date: 08/1975
Control tower: no
ARTCC: NEW YORK CENTER
FSS: NEW YORK FLIGHT SERVICE STATION
Attendance: UNATNDD
Wind indicator: yes
Segmented circle: no
Lights: SS-SR

Heliport Communications

WX ASOS at POU (5 nm SE): 126.75 (845-462-0648)
WX ASOS at MGJ (18 nm SW): 119.275 (845-457-1486)

Nearby radio navigation aids

VOR radial/distance  VOR name  Freq  Var
IGNr299/5.4KINGSTON VOR/DME117.6012W
PWLr265/15.8PAWLING VOR/DME114.3012W
CMKr339/29.5CARMEL VOR/DME116.6012W
HUOr071/33.9HUGUENOT VOR/DME116.1011W

 
NDB name  Hdg/Dist  Freq  Var  ID
STANWYCK038/11.026112WSKU ... -.- ..-
PHILMONT209/35.027213WPFH .--. ..-. ....
GREAT BARRINGTON233/37.839514WGBR --. -... .-.

Heliport Services

Runway Information

Helipad H1

Dimensions: 100 x 75 ft. / 30 x 23 m
Surface: asphalt
Runway edge lights: PERIMETER LGTS.
Latitude: 41-41.544500N
Longitude: 073-56.209000W
Traffic pattern: leftleft

Heliport Ownership and Management from official FAA records

Ownership: Privately-owned
Owner: VASSAR BROS. HOSPITAL
45 READ PLACE
POUGHKEEPSIE, NY 12601
Phone 914-454-8500
Manager: STEPHEN FAJFER
45 READ PLACE
POUGHKEEPSIE, NY 12601
Phone (845) 629-3506

Instrument Procedures

There are no published instrument procedures at 01NY.

Some nearby airports with instrument procedures:

KPOU - Hudson Valley Regional Airport (5 nm SE)
44N - Sky Acres Airport (9 nm E)
N69 - Stormville Airport (11 nm SE)
KSWF - Stewart International Airport (14 nm SW)
20N - Kingston-Ulster Airport (18 nm N)
KMGJ - Orange County Airport (18 nm SW)
N89 - Joseph Y Resnick Airport (20 nm W)
 
Loc | Ops | Rwys | IFR | FBO | Links
Com | Nav | Svcs | Stats | Notes


 
Area around 01NY (Vassar Hospital Heliport)
 
Road maps at: MapQuest Bing Google
 
Aerial photo
No photo
 
Sectional chart

 
Airport distance calculator
Flying to Vassar Hospital Heliport? Find the distance to fly.

From to 01NY

Sunrise and sunset
Times for 28-Jul-2017
 Local
(UTC-4)
 Zulu
(UTC)
Morning civil twilight05:1509:15
Sunrise05:4709:47
Sunset20:1700:17
Evening civil twilight20:4900:49

Current date and time
Zulu (UTC)  28-Jul-2017 05:59:41
Local (UTC-4)  28-Jul-2017 01:59:41
 
METAR
KPOU 
4nm SE 
280553Z AUTO 00000KT 6SM BR CLR 18/18 A2986 RMK AO2 SLP106 T01830178 10233 20183 58004
KSWF 
13nm SW 
280545Z 00000KT 10SM SCT080 19/19 A2989
KMGJ 
18nm SW 
SuperAWOS
280554Z AUTO 00000KT 1/2SM -RA FG BKN002 OVC095 18/18 A2987 RMK AO2 RAB46 SLP113 P0000 60000 T01830178 10228 20183 58004 TSNO
TAF
KPOU 
4nm SE 
271734Z 2718/2818 20006KT 5SM -SHRA OVC035 FM272200 20004KT P6SM VCSH BKN050 FM280100 20004KT P6SM BKN050 FM280800 01004KT 2SM BR BKN008 FM281200 VRB03KT P6SM SCT250
KSWF 
13nm SW 
271931Z 2720/2824 23007KT P6SM VCSH SCT025 BKN035 TEMPO 2722/2724 5SM -TSRA BR BKN025CB FM280200 20003KT P6SM SCT015 BKN035 FM280500 VRB02KT 5SM BR BKN010 FM281000 02004KT P6SM SCT010 BKN200 FM281500 04005KT P6SM SCT025 BKN200 FM281800 06006KT P6SM SCT050 BKN200 AMD NOT SKED
NOTAMs
Click for the latest NOTAMs
NOTAMs are issued by the DoD/FAA and will open in a separate window not controlled by AirNav.

 

 
 

Would you like to see your business listed on this page?

 If your business provides an interesting product or service to pilots, flight crews, aircraft, or users of the Vassar Hospital Heliport, you should consider listing it here.  To start the listing process, click on the button below
 
Add a business
 

Other Pages about Vassar Hospital Heliport

Update a link
 
Copyright © AirNav, LLC. All rights reserved. Privacy Policy  Contact